EZY342U EYPA-EGCC
Flight info
| Callsign | EZY342U |
|---|---|
| Flight time | 2h 12m |
| Altitude | 38000 |
| Route | VALUV DCT TIGNU DCT LATMI DCT ROE DCT LESRA DCT LIBSO |
| Aircraft | A20N/M-SDE2E3FGHIRWXY/LB1 |
Departure
| Time | 2026-04-25 12:15 |
|---|---|
| Airport | Palanga International Airport (EYPA) |
Arrival
| Time | 2026-04-25 14:27 |
|---|---|
| Airport | Manchester Airport (EGCC) |
| Time | Latitude | Longitude | Altitude | Speed | Heading |
|---|---|---|---|---|---|
| 2026-04-25 12:00 | 55.97029 | 21.09643 | 44 ft | 0 kts | 109° |
| 2026-04-25 12:10 | 55.97030 | 21.09646 | 44 ft | 0 kts | 84° |
| 2026-04-25 12:11 | 55.97033 | 21.09649 | 44 ft | 1 kts | 37° |
| 2026-04-25 12:11 | 55.97038 | 21.09644 | 44 ft | 1 kts | 328° |
| 2026-04-25 12:11 | 55.97048 | 21.09602 | 42 ft | 8 kts | 294° |
| 2026-04-25 12:11 | 55.97090 | 21.09478 | 42 ft | 15 kts | 289° |
| 2026-04-25 12:12 | 55.97153 | 21.09321 | 44 ft | 17 kts | 2° |
| 2026-04-25 12:12 | 55.97276 | 21.09367 | 45 ft | 22 kts | 12° |
| 2026-04-25 12:12 | 55.97477 | 21.09448 | 44 ft | 34 kts | 12° |
| 2026-04-25 12:12 | 55.97714 | 21.09539 | 45 ft | 34 kts | 13° |
| 2026-04-25 12:13 | 55.97929 | 21.09631 | 45 ft | 30 kts | 13° |
| 2026-04-25 12:13 | 55.98110 | 21.09703 | 44 ft | 25 kts | 12° |
| 2026-04-25 12:13 | 55.98233 | 21.09781 | 41 ft | 14 kts | 45° |
| 2026-04-25 12:13 | 55.98295 | 21.09792 | 41 ft | 7 kts | 279° |
| 2026-04-25 12:14 | 55.98264 | 21.09762 | 41 ft | 6 kts | 185° |
| 2026-04-25 12:14 | 55.98209 | 21.09742 | 43 ft | 8 kts | 192° |
| 2026-04-25 12:14 | 55.98196 | 21.09736 | 43 ft | 0 kts | 192° |
| 2026-04-25 12:14 | 55.98158 | 21.09721 | 44 ft | 28 kts | 192° |
| 2026-04-25 12:15 | 55.97720 | 21.09547 | 45 ft | 100 kts | 192° |
| 2026-04-25 12:15 | 55.96802 | 21.09186 | 109 ft | 160 kts | 195° |
| 2026-04-25 12:15 | 55.95714 | 21.08777 | 900 ft | 159 kts | 199° |
| 2026-04-25 12:15 | 55.94643 | 21.08374 | 1839 ft | 158 kts | 202° |
| 2026-04-25 12:16 | 55.93518 | 21.07956 | 2413 ft | 178 kts | 201° |
| 2026-04-25 12:16 | 55.92240 | 21.07421 | 2884 ft | 196 kts | 204° |
| 2026-04-25 12:16 | 55.90999 | 21.06346 | 3336 ft | 202 kts | 226° |
| 2026-04-25 12:16 | 55.90116 | 21.04362 | 3719 ft | 215 kts | 247° |
| 2026-04-25 12:17 | 55.89455 | 21.01860 | 4131 ft | 233 kts | 252° |
| 2026-04-25 12:17 | 55.88833 | 20.99148 | 4878 ft | 239 kts | 252° |
| 2026-04-25 12:17 | 55.88208 | 20.96364 | 5744 ft | 243 kts | 252° |
| 2026-04-25 12:17 | 55.87579 | 20.93555 | 6621 ft | 245 kts | 252° |
| 2026-04-25 12:18 | 55.86945 | 20.90732 | 7536 ft | 245 kts | 252° |
| 2026-04-25 12:18 | 55.86308 | 20.87901 | 8460 ft | 247 kts | 252° |
| 2026-04-25 12:18 | 55.85666 | 20.85054 | 9414 ft | 248 kts | 252° |
| 2026-04-25 12:18 | 55.85023 | 20.82197 | 10135 ft | 258 kts | 252° |
| 2026-04-25 12:19 | 55.83840 | 20.76921 | 10721 ft | 294 kts | 252° |
| 2026-04-25 12:19 | 55.82787 | 20.72266 | 11431 ft | 312 kts | 252° |
| 2026-04-25 12:19 | 55.81965 | 20.68654 | 12220 ft | 317 kts | 252° |
| 2026-04-25 12:20 | 55.81128 | 20.64987 | 13065 ft | 321 kts | 252° |
| 2026-04-25 12:20 | 55.80567 | 20.62531 | 13595 ft | 324 kts | 252° |
| 2026-04-25 12:20 | 55.80391 | 20.61758 | 13755 ft | 325 kts | 252° |
| 2026-04-25 12:20 | 55.79537 | 20.58021 | 14565 ft | 326 kts | 252° |
| 2026-04-25 12:21 | 55.78692 | 20.54331 | 15408 ft | 326 kts | 252° |
| 2026-04-25 12:21 | 55.77834 | 20.50587 | 16234 ft | 327 kts | 252° |
| 2026-04-25 12:21 | 55.76972 | 20.46833 | 17036 ft | 328 kts | 252° |
| 2026-04-25 12:21 | 55.76108 | 20.43072 | 17801 ft | 329 kts | 252° |
| 2026-04-25 12:22 | 55.75240 | 20.39298 | 18449 ft | 331 kts | 252° |
| 2026-04-25 12:22 | 55.74364 | 20.35495 | 19054 ft | 334 kts | 252° |
| 2026-04-25 12:22 | 55.73490 | 20.31709 | 19642 ft | 337 kts | 252° |
| 2026-04-25 12:22 | 55.72595 | 20.27840 | 20239 ft | 339 kts | 252° |
| 2026-04-25 12:23 | 55.71689 | 20.23933 | 20854 ft | 342 kts | 252° |
| 2026-04-25 12:23 | 55.70781 | 20.20022 | 21452 ft | 344 kts | 252° |
| 2026-04-25 12:23 | 55.69874 | 20.16124 | 22016 ft | 347 kts | 252° |
| 2026-04-25 12:23 | 55.68882 | 20.12196 | 22588 ft | 351 kts | 250° |
| 2026-04-25 12:24 | 55.67792 | 20.08306 | 23128 ft | 354 kts | 249° |
| 2026-04-25 12:24 | 55.66640 | 20.04413 | 23575 ft | 358 kts | 248° |
| 2026-04-25 12:24 | 55.65453 | 20.00507 | 24004 ft | 361 kts | 248° |
| 2026-04-25 12:24 | 55.64248 | 19.96568 | 24424 ft | 363 kts | 248° |
| 2026-04-25 12:25 | 55.63045 | 19.92635 | 24837 ft | 365 kts | 248° |
| 2026-04-25 12:25 | 55.61863 | 19.88708 | 25242 ft | 366 kts | 249° |
| 2026-04-25 12:25 | 55.60856 | 19.84580 | 25652 ft | 364 kts | 255° |
| 2026-04-25 12:25 | 55.60157 | 19.80286 | 26047 ft | 362 kts | 261° |
| 2026-04-25 12:26 | 55.59655 | 19.75897 | 26435 ft | 364 kts | 263° |
| 2026-04-25 12:26 | 55.59231 | 19.71475 | 26820 ft | 365 kts | 264° |
| 2026-04-25 12:26 | 55.58845 | 19.67020 | 27199 ft | 367 kts | 264° |
| 2026-04-25 12:26 | 55.58478 | 19.62599 | 27553 ft | 369 kts | 265° |
| 2026-04-25 12:27 | 55.58104 | 19.58089 | 27906 ft | 371 kts | 265° |
| 2026-04-25 12:27 | 55.57722 | 19.53555 | 28257 ft | 373 kts | 264° |
| 2026-04-25 12:27 | 55.57329 | 19.48999 | 28612 ft | 375 kts | 264° |
| 2026-04-25 12:27 | 55.56929 | 19.44437 | 28991 ft | 375 kts | 264° |
| 2026-04-25 12:28 | 55.56529 | 19.39941 | 29485 ft | 373 kts | 264° |
| 2026-04-25 12:28 | 55.56123 | 19.35415 | 29941 ft | 371 kts | 264° |
| 2026-04-25 12:28 | 55.55715 | 19.30906 | 30306 ft | 371 kts | 264° |
| 2026-04-25 12:28 | 55.55307 | 19.26392 | 30633 ft | 371 kts | 264° |
| 2026-04-25 12:29 | 55.54898 | 19.21887 | 30955 ft | 371 kts | 264° |
| 2026-04-25 12:29 | 55.54492 | 19.17429 | 31278 ft | 371 kts | 264° |
| 2026-04-25 12:29 | 55.54080 | 19.12930 | 31601 ft | 371 kts | 264° |
| 2026-04-25 12:29 | 55.53668 | 19.08441 | 31913 ft | 371 kts | 264° |
| 2026-04-25 12:30 | 55.53251 | 19.03921 | 32216 ft | 371 kts | 264° |
| 2026-04-25 12:30 | 55.52836 | 18.99435 | 32528 ft | 370 kts | 264° |
| 2026-04-25 12:30 | 55.52424 | 18.95006 | 32826 ft | 370 kts | 264° |
| 2026-04-25 12:30 | 55.52004 | 18.90514 | 33114 ft | 370 kts | 264° |
| 2026-04-25 12:31 | 55.51584 | 18.86034 | 33398 ft | 370 kts | 264° |
| 2026-04-25 12:31 | 55.51162 | 18.81552 | 33673 ft | 370 kts | 264° |
| 2026-04-25 12:31 | 55.50739 | 18.77080 | 33885 ft | 370 kts | 264° |
| 2026-04-25 12:31 | 55.50312 | 18.72579 | 34054 ft | 372 kts | 264° |
| 2026-04-25 12:32 | 55.49883 | 18.68067 | 34223 ft | 373 kts | 264° |
| 2026-04-25 12:32 | 55.49450 | 18.63544 | 34389 ft | 374 kts | 264° |
| 2026-04-25 12:32 | 55.49014 | 18.59004 | 34558 ft | 375 kts | 264° |
| 2026-04-25 12:32 | 55.48576 | 18.54460 | 34720 ft | 377 kts | 264° |
| 2026-04-25 12:33 | 55.48134 | 18.49904 | 34882 ft | 378 kts | 264° |
| 2026-04-25 12:33 | 55.47694 | 18.45377 | 35036 ft | 379 kts | 264° |
| 2026-04-25 12:33 | 55.47246 | 18.40788 | 35198 ft | 380 kts | 264° |
| 2026-04-25 12:33 | 55.46794 | 18.36185 | 35350 ft | 381 kts | 264° |
| 2026-04-25 12:34 | 55.46341 | 18.31581 | 35501 ft | 382 kts | 264° |
| 2026-04-25 12:34 | 55.45883 | 18.26951 | 35652 ft | 383 kts | 263° |
| 2026-04-25 12:34 | 55.45429 | 18.22369 | 35797 ft | 384 kts | 263° |
| 2026-04-25 12:35 | 55.44655 | 18.14582 | 36035 ft | 386 kts | 263° |
| 2026-04-25 12:35 | 55.44045 | 18.08384 | 36224 ft | 387 kts | 263° |
| 2026-04-25 12:35 | 55.43585 | 18.03709 | 36372 ft | 388 kts | 263° |
| 2026-04-25 12:35 | 55.43124 | 17.99020 | 36502 ft | 389 kts | 263° |
| 2026-04-25 12:36 | 55.42658 | 17.94314 | 36655 ft | 389 kts | 263° |
| 2026-04-25 12:36 | 55.42196 | 17.89669 | 36783 ft | 390 kts | 263° |
| 2026-04-25 12:36 | 55.41725 | 17.84951 | 36919 ft | 391 kts | 263° |
| 2026-04-25 12:36 | 55.41250 | 17.80219 | 37060 ft | 392 kts | 263° |
| 2026-04-25 12:37 | 55.40773 | 17.75488 | 37190 ft | 392 kts | 263° |
| 2026-04-25 12:37 | 55.40298 | 17.70801 | 37316 ft | 393 kts | 263° |
| 2026-04-25 12:37 | 55.39816 | 17.66056 | 37440 ft | 394 kts | 263° |
| 2026-04-25 12:37 | 55.39332 | 17.61310 | 37564 ft | 394 kts | 263° |
| 2026-04-25 12:38 | 55.38844 | 17.56552 | 37678 ft | 395 kts | 263° |
| 2026-04-25 12:38 | 55.37857 | 17.46982 | 37703 ft | 396 kts | 263° |
| 2026-04-25 12:39 | 55.36875 | 17.37533 | 37701 ft | 394 kts | 263° |
| 2026-04-25 12:39 | 55.35878 | 17.28023 | 37707 ft | 394 kts | 263° |
| 2026-04-25 12:40 | 55.34885 | 17.18618 | 37710 ft | 393 kts | 263° |
| 2026-04-25 12:40 | 55.33876 | 17.09131 | 37712 ft | 393 kts | 263° |
| 2026-04-25 12:41 | 55.32869 | 16.99745 | 37713 ft | 393 kts | 263° |
| 2026-04-25 12:41 | 55.31847 | 16.90284 | 37715 ft | 393 kts | 263° |
| 2026-04-25 12:42 | 55.30820 | 16.80850 | 37716 ft | 393 kts | 263° |
| 2026-04-25 12:42 | 55.29794 | 16.71495 | 37721 ft | 393 kts | 263° |
| 2026-04-25 12:43 | 55.28754 | 16.62079 | 37723 ft | 393 kts | 263° |
| 2026-04-25 12:43 | 55.27177 | 16.47944 | 37729 ft | 393 kts | 263° |
| 2026-04-25 12:44 | 55.26122 | 16.38575 | 37729 ft | 393 kts | 263° |
| 2026-04-25 12:45 | 55.24516 | 16.24438 | 37737 ft | 394 kts | 263° |
| 2026-04-25 12:45 | 55.22890 | 16.10284 | 37746 ft | 394 kts | 263° |
| 2026-04-25 12:46 | 55.21803 | 16.00914 | 37738 ft | 394 kts | 263° |
| 2026-04-25 12:46 | 55.20702 | 15.91476 | 37743 ft | 395 kts | 263° |
| 2026-04-25 12:47 | 55.19601 | 15.82115 | 37746 ft | 395 kts | 263° |
| 2026-04-25 12:47 | 55.18483 | 15.72674 | 37749 ft | 395 kts | 263° |
| 2026-04-25 12:48 | 55.17366 | 15.63304 | 37757 ft | 395 kts | 263° |
| 2026-04-25 12:48 | 55.16236 | 15.53898 | 37756 ft | 395 kts | 263° |
| 2026-04-25 12:49 | 55.15289 | 15.46064 | 37763 ft | 395 kts | 263° |
| 2026-04-25 12:49 | 55.14144 | 15.36649 | 37766 ft | 395 kts | 263° |
| 2026-04-25 12:50 | 55.12993 | 15.27254 | 37783 ft | 395 kts | 263° |
| 2026-04-25 12:50 | 55.11897 | 15.18359 | 37794 ft | 394 kts | 263° |
| 2026-04-25 12:51 | 55.10733 | 15.08987 | 37810 ft | 394 kts | 263° |
| 2026-04-25 12:51 | 55.09571 | 14.99681 | 37815 ft | 394 kts | 263° |
| 2026-04-25 12:52 | 55.08395 | 14.90334 | 37831 ft | 393 kts | 262° |
| 2026-04-25 12:52 | 55.07236 | 14.81004 | 37828 ft | 392 kts | 265° |
| 2026-04-25 12:53 | 55.06953 | 14.71684 | 37829 ft | 384 kts | 277° |
| 2026-04-25 12:53 | 55.07482 | 14.62412 | 37827 ft | 383 kts | 279° |
| 2026-04-25 12:54 | 55.08158 | 14.53225 | 37825 ft | 383 kts | 280° |
| 2026-04-25 12:54 | 55.08845 | 14.43990 | 37822 ft | 382 kts | 280° |
| 2026-04-25 12:55 | 55.09396 | 14.36322 | 37813 ft | 382 kts | 279° |
| 2026-04-25 12:55 | 55.10147 | 14.25555 | 37809 ft | 382 kts | 279° |
| 2026-04-25 12:56 | 55.10773 | 14.16413 | 37812 ft | 382 kts | 279° |
| 2026-04-25 12:56 | 55.11398 | 14.07192 | 37806 ft | 382 kts | 279° |
| 2026-04-25 12:57 | 55.12018 | 13.97964 | 37809 ft | 382 kts | 279° |
| 2026-04-25 12:57 | 55.12630 | 13.88737 | 37810 ft | 382 kts | 279° |
| 2026-04-25 12:58 | 55.13232 | 13.79553 | 37811 ft | 382 kts | 279° |
| 2026-04-25 12:58 | 55.13831 | 13.70307 | 37814 ft | 382 kts | 279° |
| 2026-04-25 12:59 | 55.14423 | 13.61051 | 37817 ft | 382 kts | 279° |
| 2026-04-25 12:59 | 55.15004 | 13.51859 | 37822 ft | 383 kts | 279° |
| 2026-04-25 13:00 | 55.15486 | 13.44164 | 37823 ft | 383 kts | 279° |
| 2026-04-25 13:00 | 55.16156 | 13.33307 | 37825 ft | 383 kts | 279° |
| 2026-04-25 13:01 | 55.16718 | 13.24078 | 37824 ft | 383 kts | 279° |
| 2026-04-25 13:01 | 55.17276 | 13.14788 | 37834 ft | 383 kts | 279° |
| 2026-04-25 13:02 | 55.17829 | 13.05482 | 37847 ft | 384 kts | 279° |
| 2026-04-25 13:02 | 55.18371 | 12.96235 | 37840 ft | 384 kts | 279° |
| 2026-04-25 13:03 | 55.18909 | 12.86921 | 37846 ft | 384 kts | 279° |
| 2026-04-25 13:03 | 55.19440 | 12.77612 | 37851 ft | 384 kts | 279° |
| 2026-04-25 13:04 | 55.19963 | 12.68299 | 37852 ft | 384 kts | 279° |
| 2026-04-25 13:04 | 55.20475 | 12.59067 | 37856 ft | 383 kts | 279° |
| 2026-04-25 13:05 | 55.20985 | 12.49761 | 37856 ft | 383 kts | 279° |
| 2026-04-25 13:05 | 55.21485 | 12.40476 | 37867 ft | 382 kts | 279° |
| 2026-04-25 13:06 | 55.21978 | 12.31196 | 37864 ft | 382 kts | 279° |
| 2026-04-25 13:06 | 55.22461 | 12.21989 | 37870 ft | 382 kts | 279° |
| 2026-04-25 13:07 | 55.22940 | 12.12709 | 37869 ft | 382 kts | 279° |
| 2026-04-25 13:07 | 55.23412 | 12.03431 | 37869 ft | 381 kts | 279° |
| 2026-04-25 13:08 | 55.23873 | 11.94220 | 37878 ft | 381 kts | 279° |
| 2026-04-25 13:08 | 55.24330 | 11.84944 | 37885 ft | 381 kts | 279° |
| 2026-04-25 13:09 | 55.24780 | 11.75683 | 37884 ft | 381 kts | 279° |
| 2026-04-25 13:09 | 55.25220 | 11.66469 | 37889 ft | 381 kts | 279° |
| 2026-04-25 13:10 | 55.25657 | 11.57185 | 37894 ft | 381 kts | 279° |
| 2026-04-25 13:10 | 55.26082 | 11.47981 | 37891 ft | 381 kts | 279° |
| 2026-04-25 13:11 | 55.26504 | 11.38703 | 37899 ft | 381 kts | 279° |
| 2026-04-25 13:11 | 55.26916 | 11.29485 | 37900 ft | 380 kts | 279° |
| 2026-04-25 13:12 | 55.27324 | 11.20208 | 37895 ft | 380 kts | 279° |
| 2026-04-25 13:12 | 55.27657 | 11.12510 | 37904 ft | 380 kts | 278° |
| 2026-04-25 13:13 | 55.28114 | 11.01742 | 37906 ft | 380 kts | 278° |
| 2026-04-25 13:13 | 55.28501 | 10.92471 | 37900 ft | 380 kts | 278° |
| 2026-04-25 13:14 | 55.28679 | 10.83166 | 37905 ft | 385 kts | 271° |
| 2026-04-25 13:14 | 55.27863 | 10.73861 | 37919 ft | 390 kts | 265° |
| 2026-04-25 13:15 | 55.26804 | 10.64513 | 37917 ft | 390 kts | 265° |
| 2026-04-25 13:15 | 55.25720 | 10.55167 | 37926 ft | 391 kts | 265° |
| 2026-04-25 13:16 | 55.24632 | 10.45885 | 37930 ft | 391 kts | 265° |
| 2026-04-25 13:16 | 55.23530 | 10.36545 | 37929 ft | 391 kts | 265° |
| 2026-04-25 13:17 | 55.22419 | 10.27195 | 37936 ft | 391 kts | 264° |
| 2026-04-25 13:17 | 55.21306 | 10.17896 | 37936 ft | 391 kts | 264° |
| 2026-04-25 13:18 | 55.20179 | 10.08544 | 37954 ft | 392 kts | 264° |
| 2026-04-25 13:18 | 55.19052 | 9.99259 | 37959 ft | 392 kts | 264° |
| 2026-04-25 13:19 | 55.17908 | 9.89898 | 37971 ft | 392 kts | 264° |
| 2026-04-25 13:19 | 55.17145 | 9.83692 | 37977 ft | 392 kts | 264° |
| 2026-04-25 13:20 | 55.15607 | 9.71259 | 37978 ft | 393 kts | 264° |
| 2026-04-25 13:20 | 55.14441 | 9.61908 | 37980 ft | 393 kts | 264° |
| 2026-04-25 13:21 | 55.13265 | 9.52540 | 37986 ft | 394 kts | 264° |
| 2026-04-25 13:21 | 55.12089 | 9.43233 | 37988 ft | 394 kts | 264° |
| 2026-04-25 13:22 | 55.10897 | 9.33867 | 37992 ft | 395 kts | 264° |
| 2026-04-25 13:23 | 55.09093 | 9.19801 | 37991 ft | 396 kts | 263° |
| 2026-04-25 13:23 | 55.07884 | 9.10453 | 37997 ft | 396 kts | 263° |
| 2026-04-25 13:24 | 55.06663 | 9.01076 | 38002 ft | 396 kts | 263° |
| 2026-04-25 13:24 | 55.05438 | 8.91725 | 38008 ft | 397 kts | 263° |
| 2026-04-25 13:25 | 55.04197 | 8.82314 | 38033 ft | 397 kts | 263° |
| 2026-04-25 13:25 | 55.02957 | 8.72973 | 38048 ft | 398 kts | 263° |
| 2026-04-25 13:26 | 55.01701 | 8.63568 | 38068 ft | 398 kts | 263° |
| 2026-04-25 13:26 | 55.00443 | 8.54207 | 38063 ft | 398 kts | 263° |
| 2026-04-25 13:27 | 54.99168 | 8.44783 | 38077 ft | 399 kts | 263° |
| 2026-04-25 13:27 | 54.97886 | 8.35369 | 38078 ft | 399 kts | 263° |
| 2026-04-25 13:28 | 54.96604 | 8.26012 | 38072 ft | 399 kts | 263° |
| 2026-04-25 13:28 | 54.95305 | 8.16583 | 38072 ft | 400 kts | 263° |
| 2026-04-25 13:29 | 54.94006 | 8.07223 | 38045 ft | 400 kts | 263° |
| 2026-04-25 13:29 | 54.92693 | 7.97812 | 38051 ft | 400 kts | 263° |
| 2026-04-25 13:30 | 54.90706 | 7.83690 | 38055 ft | 400 kts | 263° |
| 2026-04-25 13:31 | 54.88705 | 7.69590 | 38070 ft | 401 kts | 263° |
| 2026-04-25 13:31 | 54.87365 | 7.60219 | 38073 ft | 402 kts | 262° |
| 2026-04-25 13:32 | 54.86005 | 7.50767 | 38078 ft | 403 kts | 262° |
| 2026-04-25 13:32 | 54.84637 | 7.41323 | 38076 ft | 403 kts | 262° |
| 2026-04-25 13:33 | 54.83265 | 7.31899 | 38087 ft | 404 kts | 262° |
| 2026-04-25 13:33 | 54.81884 | 7.22474 | 38092 ft | 404 kts | 262° |
| 2026-04-25 13:34 | 54.80489 | 7.13013 | 38097 ft | 405 kts | 262° |
| 2026-04-25 13:34 | 54.79090 | 7.03580 | 38098 ft | 406 kts | 262° |
| 2026-04-25 13:35 | 54.77672 | 6.94074 | 38100 ft | 407 kts | 262° |
| 2026-04-25 13:35 | 54.76249 | 6.84586 | 38108 ft | 408 kts | 262° |
| 2026-04-25 13:36 | 54.75056 | 6.76677 | 38112 ft | 408 kts | 262° |
| 2026-04-25 13:36 | 54.73375 | 6.65599 | 38115 ft | 409 kts | 261° |
| 2026-04-25 13:37 | 54.72154 | 6.57604 | 38120 ft | 410 kts | 261° |
| 2026-04-25 13:37 | 54.70699 | 6.48119 | 38122 ft | 411 kts | 261° |
| 2026-04-25 13:38 | 54.69223 | 6.38563 | 38127 ft | 411 kts | 261° |
| 2026-04-25 13:38 | 54.67738 | 6.28992 | 38127 ft | 412 kts | 261° |
| 2026-04-25 13:39 | 54.66249 | 6.19460 | 38133 ft | 413 kts | 261° |
| 2026-04-25 13:39 | 54.64741 | 6.09856 | 38138 ft | 414 kts | 261° |
| 2026-04-25 13:40 | 54.63230 | 6.00295 | 38138 ft | 415 kts | 261° |
| 2026-04-25 13:40 | 54.61700 | 5.90665 | 38144 ft | 415 kts | 261° |
| 2026-04-25 13:41 | 54.60173 | 5.81105 | 38147 ft | 416 kts | 260° |
| 2026-04-25 13:41 | 54.58624 | 5.71466 | 38152 ft | 417 kts | 260° |
| 2026-04-25 13:42 | 54.57069 | 5.61849 | 38155 ft | 418 kts | 260° |
| 2026-04-25 13:42 | 54.55498 | 5.52178 | 38157 ft | 418 kts | 260° |
| 2026-04-25 13:43 | 54.53915 | 5.42496 | 38163 ft | 419 kts | 260° |
| 2026-04-25 13:43 | 54.52333 | 5.32874 | 38164 ft | 420 kts | 259° |
| 2026-04-25 13:44 | 54.50729 | 5.23169 | 38164 ft | 420 kts | 259° |
| 2026-04-25 13:44 | 54.49126 | 5.13525 | 38168 ft | 421 kts | 259° |
| 2026-04-25 13:45 | 54.47777 | 5.05456 | 38175 ft | 422 kts | 259° |
| 2026-04-25 13:45 | 54.45872 | 4.94115 | 38175 ft | 422 kts | 259° |
| 2026-04-25 13:46 | 54.44242 | 4.84472 | 38177 ft | 423 kts | 259° |
| 2026-04-25 13:46 | 54.42591 | 4.74761 | 38172 ft | 423 kts | 259° |
| 2026-04-25 13:47 | 54.40932 | 4.65055 | 38185 ft | 423 kts | 258° |
| 2026-04-25 13:47 | 54.39276 | 4.55416 | 38181 ft | 423 kts | 258° |
| 2026-04-25 13:48 | 54.37602 | 4.45730 | 38194 ft | 423 kts | 258° |
| 2026-04-25 13:48 | 54.35920 | 4.36049 | 38187 ft | 423 kts | 258° |
| 2026-04-25 13:49 | 54.34240 | 4.26432 | 38195 ft | 423 kts | 258° |
| 2026-04-25 13:49 | 54.32543 | 4.16767 | 38194 ft | 423 kts | 257° |
| 2026-04-25 13:50 | 54.30850 | 4.07176 | 38192 ft | 423 kts | 257° |
| 2026-04-25 13:50 | 54.29138 | 3.97531 | 38200 ft | 423 kts | 257° |
| 2026-04-25 13:51 | 54.27425 | 3.87931 | 38200 ft | 422 kts | 257° |
| 2026-04-25 13:51 | 54.25701 | 3.78322 | 38201 ft | 422 kts | 257° |
| 2026-04-25 13:52 | 54.23970 | 3.68724 | 38206 ft | 422 kts | 257° |
| 2026-04-25 13:52 | 54.22232 | 3.59134 | 38206 ft | 422 kts | 256° |
| 2026-04-25 13:53 | 54.20497 | 3.49612 | 38207 ft | 422 kts | 256° |
| 2026-04-25 13:53 | 54.18740 | 3.40020 | 38209 ft | 422 kts | 256° |
| 2026-04-25 13:54 | 54.16988 | 3.30504 | 38209 ft | 422 kts | 256° |
| 2026-04-25 13:54 | 54.15217 | 3.20934 | 38216 ft | 422 kts | 256° |
| 2026-04-25 13:55 | 54.13451 | 3.11441 | 38215 ft | 423 kts | 256° |
| 2026-04-25 13:55 | 54.11666 | 3.01892 | 38213 ft | 423 kts | 256° |
| 2026-04-25 13:56 | 54.09882 | 2.92397 | 38223 ft | 423 kts | 255° |
| 2026-04-25 13:56 | 54.08071 | 2.82809 | 38218 ft | 424 kts | 255° |
| 2026-04-25 13:57 | 54.06257 | 2.73249 | 38218 ft | 424 kts | 255° |
| 2026-04-25 13:57 | 54.04442 | 2.63740 | 38220 ft | 425 kts | 255° |
| 2026-04-25 13:58 | 54.02607 | 2.54167 | 38213 ft | 425 kts | 255° |
| 2026-04-25 13:58 | 54.00760 | 2.44584 | 38222 ft | 426 kts | 254° |
| 2026-04-25 13:59 | 53.98916 | 2.35061 | 38216 ft | 426 kts | 254° |
| 2026-04-25 13:59 | 53.97050 | 2.25471 | 38217 ft | 426 kts | 254° |
| 2026-04-25 14:00 | 53.95496 | 2.17523 | 38216 ft | 426 kts | 254° |
| 2026-04-25 14:00 | 53.93310 | 2.06400 | 38217 ft | 427 kts | 253° |
| 2026-04-25 14:01 | 53.91422 | 1.96840 | 38223 ft | 427 kts | 253° |
| 2026-04-25 14:01 | 53.89526 | 1.87288 | 38221 ft | 427 kts | 253° |
| 2026-04-25 14:02 | 53.87619 | 1.77730 | 38224 ft | 427 kts | 253° |
| 2026-04-25 14:02 | 53.85718 | 1.68246 | 38220 ft | 427 kts | 253° |
| 2026-04-25 14:03 | 53.83797 | 1.58710 | 38222 ft | 428 kts | 253° |
| 2026-04-25 14:03 | 53.81865 | 1.49165 | 38187 ft | 429 kts | 252° |
| 2026-04-25 14:03 | 53.80895 | 1.44389 | 37911 ft | 430 kts | 252° |
| 2026-04-25 14:04 | 53.79943 | 1.39712 | 37647 ft | 430 kts | 252° |
| 2026-04-25 14:04 | 53.78964 | 1.34920 | 37377 ft | 431 kts | 252° |
| 2026-04-25 14:04 | 53.77982 | 1.30118 | 37115 ft | 432 kts | 252° |
| 2026-04-25 14:04 | 53.76998 | 1.25320 | 36848 ft | 432 kts | 252° |
| 2026-04-25 14:05 | 53.76008 | 1.20506 | 36595 ft | 433 kts | 252° |
| 2026-04-25 14:05 | 53.75027 | 1.15746 | 36330 ft | 434 kts | 252° |
| 2026-04-25 14:05 | 53.74033 | 1.10935 | 36233 ft | 434 kts | 252° |
| 2026-04-25 14:06 | 53.72034 | 1.01294 | 36225 ft | 435 kts | 252° |
| 2026-04-25 14:06 | 53.70024 | 0.91646 | 36221 ft | 435 kts | 252° |
| 2026-04-25 14:07 | 53.68020 | 0.82076 | 36229 ft | 434 kts | 252° |
| 2026-04-25 14:07 | 53.65998 | 0.72462 | 36226 ft | 434 kts | 251° |
| 2026-04-25 14:08 | 53.63968 | 0.62857 | 36224 ft | 434 kts | 251° |
| 2026-04-25 14:08 | 53.61948 | 0.53342 | 36223 ft | 434 kts | 251° |
| 2026-04-25 14:09 | 53.59908 | 0.43780 | 36231 ft | 433 kts | 251° |
| 2026-04-25 14:09 | 53.57859 | 0.34224 | 36222 ft | 433 kts | 251° |
| 2026-04-25 14:10 | 53.55809 | 0.24705 | 36226 ft | 432 kts | 251° |
| 2026-04-25 14:10 | 53.53766 | 0.15242 | 36226 ft | 432 kts | 252° |
| 2026-04-25 14:11 | 53.52830 | 0.05386 | 36226 ft | 429 kts | 274° |
| 2026-04-25 14:11 | 53.53109 | 0.00375 | 36028 ft | 432 kts | 277° |
| 2026-04-25 14:11 | 53.53474 | -0.04480 | 35380 ft | 433 kts | 277° |
| 2026-04-25 14:12 | 53.53868 | -0.09529 | 34596 ft | 438 kts | 277° |
| 2026-04-25 14:12 | 53.54260 | -0.14628 | 33790 ft | 440 kts | 277° |
| 2026-04-25 14:12 | 53.54640 | -0.19687 | 32941 ft | 443 kts | 277° |
| 2026-04-25 14:12 | 53.55024 | -0.24869 | 32068 ft | 446 kts | 277° |
| 2026-04-25 14:13 | 53.55405 | -0.30069 | 31201 ft | 449 kts | 276° |
| 2026-04-25 14:13 | 53.55781 | -0.35256 | 30317 ft | 452 kts | 276° |
| 2026-04-25 14:13 | 53.56161 | -0.40541 | 29283 ft | 456 kts | 276° |
| 2026-04-25 14:13 | 53.56540 | -0.45852 | 28300 ft | 458 kts | 276° |
| 2026-04-25 14:14 | 53.56920 | -0.51212 | 27336 ft | 459 kts | 276° |
| 2026-04-25 14:14 | 53.57293 | -0.56510 | 26578 ft | 457 kts | 276° |
| 2026-04-25 14:14 | 53.57664 | -0.61813 | 25865 ft | 453 kts | 276° |
| 2026-04-25 14:14 | 53.58027 | -0.67033 | 24928 ft | 445 kts | 276° |
| 2026-04-25 14:15 | 53.58383 | -0.72184 | 23878 ft | 440 kts | 276° |
| 2026-04-25 14:15 | 53.58497 | -0.73845 | 23487 ft | 438 kts | 276° |
| 2026-04-25 14:15 | 53.59072 | -0.82279 | 21490 ft | 428 kts | 276° |
| 2026-04-25 14:15 | 53.59403 | -0.87166 | 20400 ft | 421 kts | 276° |
| 2026-04-25 14:16 | 53.59730 | -0.92029 | 19464 ft | 413 kts | 276° |
| 2026-04-25 14:16 | 53.60036 | -0.96831 | 18737 ft | 410 kts | 274° |
| 2026-04-25 14:16 | 53.60013 | -1.01611 | 17963 ft | 407 kts | 264° |
| 2026-04-25 14:16 | 53.59647 | -1.06262 | 17209 ft | 403 kts | 261° |
| 2026-04-25 14:17 | 53.59170 | -1.10917 | 16466 ft | 399 kts | 260° |
| 2026-04-25 14:17 | 53.58666 | -1.15489 | 15760 ft | 395 kts | 260° |
| 2026-04-25 14:17 | 53.58152 | -1.20027 | 15096 ft | 390 kts | 259° |
| 2026-04-25 14:17 | 53.57638 | -1.24493 | 14478 ft | 385 kts | 259° |
| 2026-04-25 14:18 | 53.57128 | -1.28889 | 13852 ft | 380 kts | 259° |
| 2026-04-25 14:18 | 53.56631 | -1.33164 | 13280 ft | 373 kts | 259° |
| 2026-04-25 14:18 | 53.56140 | -1.37368 | 12999 ft | 358 kts | 259° |
| 2026-04-25 14:18 | 53.55665 | -1.41406 | 12760 ft | 344 kts | 259° |
| 2026-04-25 14:19 | 53.55210 | -1.45271 | 12536 ft | 331 kts | 259° |
| 2026-04-25 14:19 | 53.54770 | -1.49003 | 12343 ft | 318 kts | 259° |
| 2026-04-25 14:19 | 53.54344 | -1.52594 | 12169 ft | 306 kts | 259° |
| 2026-04-25 14:19 | 53.53939 | -1.56008 | 11991 ft | 296 kts | 260° |
| 2026-04-25 14:20 | 53.53536 | -1.59400 | 11601 ft | 294 kts | 260° |
| 2026-04-25 14:20 | 53.53401 | -1.60534 | 11443 ft | 294 kts | 259° |
| 2026-04-25 14:20 | 53.52730 | -1.66128 | 10733 ft | 292 kts | 259° |
| 2026-04-25 14:20 | 53.52336 | -1.69408 | 10257 ft | 288 kts | 260° |
| 2026-04-25 14:21 | 53.51938 | -1.72722 | 9621 ft | 287 kts | 260° |
| 2026-04-25 14:21 | 53.51545 | -1.75991 | 8972 ft | 284 kts | 259° |
| 2026-04-25 14:21 | 53.51151 | -1.79248 | 8321 ft | 282 kts | 259° |
| 2026-04-25 14:21 | 53.50762 | -1.82471 | 7697 ft | 280 kts | 259° |
| 2026-04-25 14:22 | 53.50374 | -1.85665 | 7105 ft | 278 kts | 259° |
| 2026-04-25 14:22 | 53.49991 | -1.88806 | 6527 ft | 276 kts | 259° |
| 2026-04-25 14:22 | 53.49686 | -1.91296 | 6077 ft | 273 kts | 259° |
| 2026-04-25 14:22 | 53.49310 | -1.94355 | 5843 ft | 261 kts | 258° |
| 2026-04-25 14:23 | 53.48947 | -1.97275 | 5647 ft | 250 kts | 256° |
| 2026-04-25 14:23 | 53.48330 | -1.99987 | 5114 ft | 250 kts | 240° |
| 2026-04-25 14:23 | 53.47683 | -2.01609 | 4630 ft | 255 kts | 232° |
| 2026-04-25 14:23 | 53.46538 | -2.03945 | 3872 ft | 262 kts | 230° |
| 2026-04-25 14:24 | 53.45378 | -2.06335 | 3188 ft | 265 kts | 231° |
| 2026-04-25 14:24 | 53.43894 | -2.09487 | 2689 ft | 251 kts | 232° |
| 2026-04-25 14:24 | 53.43175 | -2.11017 | 2488 ft | 244 kts | 235° |
| 2026-04-25 14:24 | 53.42156 | -2.13203 | 2206 ft | 232 kts | 234° |
| 2026-04-25 14:25 | 53.41178 | -2.15255 | 1914 ft | 219 kts | 231° |
| 2026-04-25 14:25 | 53.40246 | -2.17188 | 1607 ft | 205 kts | 231° |
| 2026-04-25 14:25 | 53.39416 | -2.18942 | 1364 ft | 188 kts | 232° |
| 2026-04-25 14:25 | 53.38884 | -2.20077 | 1137 ft | 178 kts | 233° |
| 2026-04-25 14:26 | 53.37956 | -2.22168 | 836 ft | 160 kts | 232° |
| 2026-04-25 14:26 | 53.37263 | -2.23584 | 629 ft | 155 kts | 232° |
| 2026-04-25 14:26 | 53.36589 | -2.24992 | 420 ft | 154 kts | 231° |
| 2026-04-25 14:26 | 53.35924 | -2.26357 | 260 ft | 151 kts | 231° |
| 2026-04-25 14:27 | 53.35354 | -2.27540 | 244 ft | 106 kts | 231° |
| 2026-04-25 14:27 | 53.35007 | -2.28266 | 232 ft | 53 kts | 241° |
| 2026-04-25 14:27 | 53.34942 | -2.28668 | 228 ft | 15 kts | 270° |
| 2026-04-25 14:27 | 53.35003 | -2.28749 | 228 ft | 12 kts | 20° |
| 2026-04-25 14:28 | 53.35057 | -2.28661 | 230 ft | 10 kts | 52° |
| 2026-04-25 14:28 | 53.35101 | -2.28569 | 231 ft | 11 kts | 51° |
| 2026-04-25 14:28 | 53.35169 | -2.28430 | 232 ft | 18 kts | 50° |
| 2026-04-25 14:28 | 53.35247 | -2.28269 | 234 ft | 17 kts | 48° |
| 2026-04-25 14:29 | 53.35327 | -2.28128 | 236 ft | 16 kts | 43° |
| 2026-04-25 14:29 | 53.35406 | -2.28004 | 238 ft | 15 kts | 43° |
| 2026-04-25 14:29 | 53.35478 | -2.27888 | 240 ft | 14 kts | 44° |
| 2026-04-25 14:29 | 53.35543 | -2.27781 | 241 ft | 13 kts | 44° |
| 2026-04-25 14:30 | 53.35598 | -2.27690 | 242 ft | 8 kts | 45° |
| 2026-04-25 14:30 | 53.35628 | -2.27641 | 243 ft | 3 kts | 44° |
| 2026-04-25 14:30 | 53.35665 | -2.27576 | 244 ft | 11 kts | 47° |
| 2026-04-25 14:31 | 53.35722 | -2.27458 | 245 ft | 14 kts | 52° |
| 2026-04-25 14:31 | 53.35780 | -2.27339 | 246 ft | 12 kts | 41° |
| 2026-04-25 14:31 | 53.35855 | -2.27318 | 247 ft | 10 kts | 359° |
| 2026-04-25 14:31 | 53.35909 | -2.27319 | 247 ft | 6 kts | 359° |
| 2026-04-25 14:32 | 53.35931 | -2.27336 | 247 ft | 3 kts | 302° |
| 2026-04-25 14:32 | 53.35934 | -2.27372 | 247 ft | 4 kts | 278° |
| 2026-04-25 14:32 | 53.35937 | -2.27400 | 247 ft | 1 kts | 277° |
| 2026-04-25 14:32 | 53.35937 | -2.27410 | 247 ft | 0 kts | 277° |
| 2026-04-25 14:33 | 53.35937 | -2.27411 | 247 ft | 0 kts | 276° |